Abbeville, Louisiana
Current Conditions -  °F | °C
As of 7:50 AM on Friday 24 Oct 2014 (Local Time) from KIYA Reporting Station
Haze Haze  
Wind Chill:   Ceiling: Unl
Heat Index:   Visibility: 5mi
Dew Point:   Wind: 3mph
Humidity: 100%   Direction: 340°NNW
Pressure: 30.13"   Gusts: NA
Location:  29.97°N, 92.13°W
Report Text: KIYA 241250Z AUTO 34003KT 5SM BR CLR 08/08 A3013 RMK AO2 T00830083
Loading
Personal Weather Stations






























Interactive Weather Map
Tropical Storm Tracking
New forecast layout! Learn more

10-Day Weather Forecast

Advertisements
Track Severe Weather on mobile